Flight Track Log - Related Links

Times and Time Zones

All times are in EDT time to prevent confusion due to time zone crossing. See the JBU56 flight status page for this flight to view local times or setup timezone preferences in your user account.

Time Position Orientation Groundspeed Altitude Reporting Facility
EDT Latitude Longitude Course Direction KTS MPH feet Rate Location/Type
Sun 09:26:52 AM 40.6167 -73.8667 18° North 212 244 2,800  Level New York TRACON
Sun 09:27:58 AM 40.5833 -73.8333 143° Southeast 255 293 5,600 2,857 Climbing New York TRACON
Sun 09:28:00 AM 40.9636 -73.5932 21° North  Level FlightAware Approximate
Sun 09:28:58 AM 40.6167 -73.7333 66° East 310 357 8,800  Level New York TRACON
Sun 09:29:00 AM 41.0492 -73.5450 27° Northeast  Level FlightAware Approximate
Sun 09:29:52 AM 40.6667 -73.6667 45° Northeast 299 344 11,000  Level New York TRACON
Sun 09:30:00 AM 41.1324 -73.4896 27° Northeast  Level FlightAware Approximate
Sun 09:31:00 AM 41.2186 -73.4438 14° North  Level FlightAware Approximate
Sun 09:31:51 AM 40.8400 -73.5622 25° Northeast 377 434 15,200  Level Boston Center
Sun 09:32:00 AM 41.2922 -73.3962 18° North  Level FlightAware Approximate
Sun 09:32:51 AM 40.9386 -73.5089 22° Northeast 377 434 17,000  Level Boston Center
Sun 09:33:51 AM 41.0392 -73.4500 24° Northeast 385 443 17,100 500 Climbing Boston Center
Sun 09:34:51 AM 41.1333 -73.3964 23° Northeast 390 449 18,000 1,388 Climbing Boston Center
Sun 09:35:52 AM 41.2239 -73.2764 45° Northeast 403 464 19,900 1,500 Climbing Boston Center
Sun 09:36:51 AM 41.3122 -73.1558 46° Northeast 415 478 21,000 555 Climbing Boston Center
Sun 09:37:51 AM 41.4250 -73.1322 North 401 461 21,000  Level Boston Center
Sun 09:38:51 AM 41.5167 -73.1331 360° North 395 455 21,000  Level Boston Center
Sun 09:39:52 AM 41.6481 -73.1403 358° North 390 449 21,000  Level Boston Center
Sun 09:41:03 AM 41.7606 -73.1414 360° North 390 449 21,000  Level Boston Center
Sun 09:42:03 AM 41.8939 -73.1428 360° North 390 449 21,000  Level Boston Center
Sun 09:43:03 AM 42.0064 -73.1442 359° North 395 455 21,000  Level Boston Center
Sun 09:44:03 AM 42.1169 -73.1425 North 400 460 21,000  Level Boston Center
Sun 09:45:03 AM 42.2294 -73.1439 359° North 400 460 21,000  Level Boston Center
Sun 09:46:15 AM 42.3419 -73.1367 North 400 460 21,000  Level Boston Center
Sun 09:47:15 AM 42.4733 -73.1381 360° North 400 460 21,000  Level Boston Center
Sun 09:48:15 AM 42.5836 -73.1394 359° North 395 455 21,000  Level Boston Center
Sun 09:49:15 AM 42.6817 -73.1461 357° North 395 455 21,000  Level Boston Center
Sun 09:50:15 AM 42.7942 -73.1475 359° North 395 455 21,000  Level Boston Center
Sun 09:51:15 AM 42.8839 -73.1486 359° North 395 455 21,000  Level Boston Center
Sun 09:52:15 AM 43.0150 -73.1472 360° North 395 455 21,000  Level Boston Center
Sun 09:53:15 AM 43.1275 -73.1483 360° North 395 455 21,000  Level Boston Center
Sun 09:54:15 AM 43.2339 -73.1497 359° North 395 455 21,000 -200 Level Boston Center
Sun 09:55:15 AM 43.3444 -73.1508 360° North 395 455 20,600 -750 Descending Boston Center
Sun 09:56:15 AM 43.4631 -73.1494 360° North 384 442 19,500 -1,200 Descending Boston Center
Sun 09:57:15 AM 43.5672 -73.1508 359° North 379 436 18,200 -1,900 Descending Boston Center
Sun 09:58:15 AM 43.6653 -73.1519 360° North 369 425 15,700 -2,150 Descending Boston Center
Sun 09:59:15 AM 43.7592 -73.1500 North 343 395 13,900 -1,750 Descending Boston Center
Sun 10:00:15 AM 43.8528 -73.1511 360° North 330 380 12,200 -1,450 Descending Boston Center
Sun 10:01:15 AM 43.9383 -73.1522 359° North 318 366 11,000 -900 Descending Boston Center
Sun 10:02:15 AM 44.0050 -73.1386 North 284 327 10,400 -1,000 Descending Boston Center
Sun 10:03:15 AM 44.0761 -73.1164 13° North 259 298 9,000 -1,500 Descending Boston Center
Sun 10:04:15 AM 44.1389 -73.0708 28° Northeast 249 287 7,400 -1,500 Descending Boston Center
Sun 10:05:15 AM 44.1994 -73.0250 28° Northeast 249 287 6,000 -1,000 Descending Boston Center
Sun 10:06:15 AM 44.2578 -72.9936 21° North 237 273 5,400 -300 Descending Boston Center
Sun 10:07:15 AM 44.3100 -72.9681 19° North 212 244 5,400 -850 Level Boston Center
Sun 10:08:15 AM 44.3622 -72.9831 348° North 175 201 3,700 -1,450 Descending Boston Center
Sun 10:09:15 AM 44.3953 -73.0297 315° West 173 199 2,500 -1,000 Descending Boston Center
Sun 10:10:15 AM 44.4242 -73.0767 311° West 168 193 1,700 -800 Descending Boston Center
Sun 10:11:15 AM 44.4489 -73.1147 312° West 146 168 900 4,650 Descending Boston Center
Sun 10:12:15 AM 44.4656 -73.1439 309° West 127 146 11,000 5,050 Climbing Boston Center
Sun 10:13:15 AM 44.4800 -73.1675 311° West 103 119 11,000  Level Boston Center

Login

Don't have an account? Register now (free) for customized features, flight alerts, and more!